G.m. Mcallister — WDH9744 — position and weather

sailwx.info

Track history (hours):
 
Tides and Currents Weather Stations Pressure Air Temp Water Temp Dewpoint Dewpoint Depression Visibility Wind Speed Wind Dir Waves Ship Positions

G.m. Mcallister

Owner: McAllister Towing & Transportation Company Inc., Staten Island, NY. More information available from US FCC via Universal Licensing System and Coast Guard Vessel Documentation Center.

Last reported at 2017-Dec-11 16:58 UTC. Time now 2017-Dec-13 14:45 UTC.
Position N 36°53' W 076°20'.

Length 29 m; draft 4.5 m.

Type: Tug. MMSI: 367661170.

Date/timePositionNaut miles runAvg speedWind from/ knotsBaromVisibWave heightAir tempDewpointWater temp
2017-Dec-11 16:58N 36°53' W 076°20'1 0.6
2017-Dec-11 16:03N 36°52' W 076°21'0 0.1
2017-Dec-11 15:58N 36°52' W 076°21'0 0.0
2017-Dec-11 15:30N 36°52' W 076°21'0 0.0
2017-Dec-11 15:00N 36°52' W 076°21'1 1.8
2017-Dec-11 14:30N 36°53' W 076°20'1 1.6
2017-Dec-11 13:57N 36°52' W 076°21'5 1.4
2017-Dec-11 10:45N 36°57' W 076°20'1 0.1
2017-Dec-10 20:44N 36°56' W 076°20'1 3.4
2017-Dec-10 20:27N 36°55' W 076°20'2 1.9
2017-Dec-10 19:30N 36°57' W 076°20'1 0.3
2017-Dec-10 16:32N 36°56' W 076°20'1 1.3
2017-Dec-10 15:56N 36°55' W 076°20'3 7.8
2017-Dec-10 15:30N 36°52' W 076°19'0 0.7
2017-Dec-10 15:00N 36°51' W 076°19'0 0.0
2017-Dec-10 14:30N 36°51' W 076°19'0 0.0
2017-Dec-10 14:00N 36°51' W 076°19'0 0.0
2017-Dec-10 13:30N 36°51' W 076°19'0 0.0
2017-Dec-10 13:00N 36°51' W 076°19'1 2.0
2017-Dec-10 12:30N 36°52' W 076°20'1 1.1
2017-Dec-10 11:49N 36°53' W 076°21'2 4.3
2017-Dec-10 11:15N 36°55' W 076°20'2 0.1
2017-Dec-09 09:29N 36°53' W 076°20'2 3.0
2017-Dec-09 08:58N 36°51' W 076°20'0 0.0
2017-Dec-09 08:30N 36°51' W 076°20'0 0.0
2017-Dec-09 08:00N 36°51' W 076°20'0 0.0
2017-Dec-09 07:28N 36°51' W 076°20'0 0.0
2017-Dec-09 07:00N 36°51' W 076°20'0 0.0
2017-Dec-09 06:17N 36°51' W 076°20'0 0.0
2017-Dec-09 05:57N 36°51' W 076°20'0 0.0
2017-Dec-09 05:30N 36°51' W 076°20'0 0.0
2017-Dec-09 04:59N 36°51' W 076°20'0 0.0
2017-Dec-09 04:30N 36°51' W 076°20'0 0.0
2017-Dec-09 04:00N 36°51' W 076°20'0 0.0
2017-Dec-09 03:30N 36°51' W 076°20'0 0.0
2017-Dec-09 03:00N 36°51' W 076°20'0 0.0
2017-Dec-09 02:30N 36°51' W 076°20'0 0.0
2017-Dec-09 02:00N 36°51' W 076°20'0 0.0
2017-Dec-09 01:30N 36°51' W 076°20'0 0.0
2017-Dec-09 01:01N 36°51' W 076°20'1 1.0
2017-Dec-09 00:30N 36°52' W 076°19'1 2.2
2017-Dec-08 23:50N 36°52' W 076°21'0 0.1
2017-Dec-08 23:27N 36°52' W 076°21'0 0.2
2017-Dec-08 22:37N 36°52' W 076°21'0 0.1
2017-Dec-08 22:30N 36°52' W 076°21'3 5.4
2017-Dec-08 22:00N 36°51' W 076°18'3 5.8
2017-Dec-08 21:30N 36°48' W 076°17'0 0.4
2017-Dec-08 21:00N 36°48' W 076°17'1 2.9
2017-Dec-08 20:30N 36°50' W 076°18'6 0.7
2017-Dec-08 11:36N 36°56' W 076°20'1 6.8
2017-Dec-08 11:29N 36°55' W 076°20'3 5.7
2017-Dec-08 11:00N 36°52' W 076°21'0 0.2
2017-Dec-08 10:28N 36°52' W 076°21'2 3.7
2017-Dec-08 10:00N 36°54' W 076°20'2 0.0
2017-Dec-06 22:52N 36°56' W 076°20'0 0.6
2017-Dec-06 22:29N 36°56' W 076°20'0 0.2
2017-Dec-06 20:59N 36°56' W 076°20'  
2017-Dec-02 23:11N 36°54' W 076°20'1 6.5
2017-Dec-02 23:01N 36°53' W 076°20'0 0.8
2017-Dec-02 22:25N 36°53' W 076°21'1 2.9
2017-Dec-02 21:56N 36°54' W 076°20'1 1.0
2017-Dec-02 21:00N 36°55' W 076°20'  
Track history (hours):
 
Tides and Currents Weather Stations Pressure Air Temp Water Temp Dewpoint Dewpoint Depression Visibility Wind Speed Wind Dir Waves Ship Positions

G.m. Mcallister

Owner: McAllister Towing & Transportation Company Inc., Staten Island, NY. More information available from US FCC via Universal Licensing System and Coast Guard Vessel Documentation Center.

Last reported at 2017-Dec-11 16:58 UTC. Time now 2017-Dec-13 14:45 UTC.
Position N 36°53' W 076°20'.

Length 29 m; draft 4.5 m.

Type: Tug. MMSI: 367661170.

Date/timePositionNaut miles runAvg speedWind from/ knotsBaromVisibWave heightAir tempDewpointWater temp
2017-Dec-11 16:58N 36°53' W 076°20'1 0.6
2017-Dec-11 16:03N 36°52' W 076°21'0 0.1
2017-Dec-11 15:58N 36°52' W 076°21'0 0.0
2017-Dec-11 15:30N 36°52' W 076°21'0 0.0
2017-Dec-11 15:00N 36°52' W 076°21'1 1.8
2017-Dec-11 14:30N 36°53' W 076°20'1 1.6
2017-Dec-11 13:57N 36°52' W 076°21'5 1.4
2017-Dec-11 10:45N 36°57' W 076°20'1 0.1
2017-Dec-10 20:44N 36°56' W 076°20'1 3.4
2017-Dec-10 20:27N 36°55' W 076°20'2 1.9
2017-Dec-10 19:30N 36°57' W 076°20'1 0.3
2017-Dec-10 16:32N 36°56' W 076°20'1 1.3
2017-Dec-10 15:56N 36°55' W 076°20'3 7.8
2017-Dec-10 15:30N 36°52' W 076°19'0 0.7
2017-Dec-10 15:00N 36°51' W 076°19'0 0.0
2017-Dec-10 14:30N 36°51' W 076°19'0 0.0
2017-Dec-10 14:00N 36°51' W 076°19'0 0.0
2017-Dec-10 13:30N 36°51' W 076°19'0 0.0
2017-Dec-10 13:00N 36°51' W 076°19'1 2.0
2017-Dec-10 12:30N 36°52' W 076°20'1 1.1
2017-Dec-10 11:49N 36°53' W 076°21'2 4.3
2017-Dec-10 11:15N 36°55' W 076°20'2 0.1
2017-Dec-09 09:29N 36°53' W 076°20'2 3.0
2017-Dec-09 08:58N 36°51' W 076°20'0 0.0
2017-Dec-09 08:30N 36°51' W 076°20'0 0.0
2017-Dec-09 08:00N 36°51' W 076°20'0 0.0
2017-Dec-09 07:28N 36°51' W 076°20'0 0.0
2017-Dec-09 07:00N 36°51' W 076°20'0 0.0
2017-Dec-09 06:17N 36°51' W 076°20'0 0.0
2017-Dec-09 05:57N 36°51' W 076°20'0 0.0
2017-Dec-09 05:30N 36°51' W 076°20'0 0.0
2017-Dec-09 04:59N 36°51' W 076°20'0 0.0
2017-Dec-09 04:30N 36°51' W 076°20'0 0.0
2017-Dec-09 04:00N 36°51' W 076°20'0 0.0
2017-Dec-09 03:30N 36°51' W 076°20'0 0.0
2017-Dec-09 03:00N 36°51' W 076°20'0 0.0
2017-Dec-09 02:30N 36°51' W 076°20'0 0.0
2017-Dec-09 02:00N 36°51' W 076°20'0 0.0
2017-Dec-09 01:30N 36°51' W 076°20'0 0.0
2017-Dec-09 01:01N 36°51' W 076°20'1 1.0
2017-Dec-09 00:30N 36°52' W 076°19'1 2.2
2017-Dec-08 23:50N 36°52' W 076°21'0 0.1
2017-Dec-08 23:27N 36°52' W 076°21'0 0.2
2017-Dec-08 22:37N 36°52' W 076°21'0 0.1
2017-Dec-08 22:30N 36°52' W 076°21'3 5.4
2017-Dec-08 22:00N 36°51' W 076°18'3 5.8
2017-Dec-08 21:30N 36°48' W 076°17'0 0.4
2017-Dec-08 21:00N 36°48' W 076°17'1 2.9
2017-Dec-08 20:30N 36°50' W 076°18'6 0.7
2017-Dec-08 11:36N 36°56' W 076°20'1 6.8
2017-Dec-08 11:29N 36°55' W 076°20'3 5.7
2017-Dec-08 11:00N 36°52' W 076°21'0 0.2
2017-Dec-08 10:28N 36°52' W 076°21'2 3.7
2017-Dec-08 10:00N 36°54' W 076°20'2 0.0
2017-Dec-06 22:52N 36°56' W 076°20'0 0.6
2017-Dec-06 22:29N 36°56' W 076°20'0 0.2
2017-Dec-06 20:59N 36°56' W 076°20'  
2017-Dec-02 23:11N 36°54' W 076°20'1 6.5
2017-Dec-02 23:01N 36°53' W 076°20'0 0.8
2017-Dec-02 22:25N 36°53' W 076°21'1 2.9
2017-Dec-02 21:56N 36°54' W 076°20'1 1.0
2017-Dec-02 21:00N 36°55' W 076°20'  

Dump ship's entire track history